createdAt,value
2018-01-28T21:49:05.114Z,1026.96
2018-01-28T21:50:13.829Z,1027
2018-01-28T21:51:23.284Z,1026.93
2018-01-28T21:52:31.972Z,1026.95
2018-01-28T21:53:40.915Z,1026.95
2018-01-28T21:54:49.901Z,1026.93
2018-01-28T21:55:59.130Z,1026.93
2018-01-28T21:57:08.639Z,1026.95
2018-01-28T21:58:17.620Z,1026.86
2018-01-28T21:59:26.350Z,1026.9
2018-01-28T22:00:35.586Z,1026.93
2018-01-28T22:01:44.299Z,1026.92
2018-01-28T22:02:53.297Z,1026.96
2018-01-28T22:04:02.301Z,1026.91
2018-01-28T22:05:11.054Z,1026.93
2018-01-28T22:06:20.059Z,1026.93
2018-01-28T22:07:29.079Z,1026.96
2018-01-28T22:08:38.395Z,1026.95
2018-01-28T22:09:47.720Z,1026.92
2018-01-28T22:10:57.231Z,1026.88
2018-01-28T22:12:05.978Z,1026.92
2018-01-28T22:13:14.994Z,1026.84
2018-01-28T22:14:24.632Z,1026.93
2018-01-28T22:15:33.967Z,1026.93
2018-01-28T22:16:43.768Z,1026.87
2018-01-28T22:17:52.744Z,1026.96
2018-01-28T22:19:01.759Z,1026.91
2018-01-28T22:20:11.648Z,1027.01
2018-01-28T22:21:21.183Z,1026.95
2018-01-28T22:22:30.264Z,1027
2018-01-28T22:23:39.284Z,1026.99
2018-01-28T22:24:48.282Z,1026.97
2018-01-28T22:25:58.197Z,1026.94
2018-01-28T22:27:07.697Z,1026.95
2018-01-28T22:28:16.530Z,1026.93
2018-01-28T22:29:25.677Z,1026.93
2018-01-28T22:30:34.411Z,1026.91
2018-01-28T22:31:43.400Z,1026.95
2018-01-28T22:32:52.625Z,1026.95
2018-01-28T22:34:01.638Z,1026.95
2018-01-28T22:35:10.378Z,1026.95
2018-01-28T22:36:19.676Z,1026.98
2018-01-28T22:37:28.676Z,1027.01
2018-01-28T22:38:37.936Z,1026.96
2018-01-28T22:39:46.935Z,1026.96
2018-01-28T22:40:56.092Z,1026.96
2018-01-28T22:42:05.367Z,1026.99
2018-01-28T22:43:14.366Z,1026.95
2018-01-28T22:44:23.613Z,1026.95
2018-01-28T22:45:33.558Z,1026.93
2018-01-28T22:46:42.510Z,1026.94
2018-01-28T22:47:51.246Z,1026.95
2018-01-28T22:49:00.722Z,1026.94
2018-01-28T22:50:09.983Z,1026.99
2018-01-28T22:51:18.956Z,1026.97
2018-01-28T22:52:27.916Z,1026.96
2018-01-28T22:53:36.954Z,1026.91
2018-01-28T22:54:45.939Z,1026.93
2018-01-28T22:55:54.967Z,1026.92
2018-01-28T22:57:03.664Z,1026.91
2018-01-28T22:58:12.351Z,1026.95
2018-01-28T22:59:21.343Z,1026.95
2018-01-28T23:00:30.324Z,1026.89
2018-01-28T23:01:39.550Z,1026.87
2018-01-28T23:02:49.057Z,1026.85
2018-01-28T23:03:58.278Z,1026.83
2018-01-28T23:05:07.269Z,1026.87
2018-01-28T23:06:16.240Z,1026.85
2018-01-28T23:07:24.949Z,1026.79
2018-01-28T23:08:34.170Z,1026.82
2018-01-28T23:09:43.149Z,1026.84
2018-01-28T23:10:51.863Z,1026.82
2018-01-28T23:12:01.104Z,1026.79
2018-01-28T23:13:10.074Z,1026.81
2018-01-28T23:14:19.608Z,1026.75
2018-01-28T23:15:29.128Z,1026.78
2018-01-28T23:16:37.846Z,1026.73
2018-01-28T23:17:46.849Z,1026.68
2018-01-28T23:18:55.557Z,1026.69
2018-01-28T23:20:04.522Z,1026.72
2018-01-28T23:21:13.781Z,1026.66
2018-01-28T23:22:22.756Z,1026.7
2018-01-28T23:23:31.718Z,1026.64
2018-01-28T23:24:40.421Z,1026.7
2018-01-28T23:25:49.425Z,1026.68
2018-01-28T23:26:58.394Z,1026.69
2018-01-28T23:28:07.898Z,1026.68
2018-01-28T23:29:16.981Z,1026.71
2018-01-28T23:30:25.945Z,1026.69
2018-01-28T23:31:35.715Z,1026.72
2018-01-28T23:32:44.692Z,1026.71
2018-01-28T23:33:53.669Z,1026.7
2018-01-28T23:35:02.909Z,1026.74
2018-01-28T23:36:11.876Z,1026.7
2018-01-28T23:37:21.124Z,1026.74
2018-01-28T23:38:29.840Z,1026.76
2018-01-28T23:39:39.083Z,1026.77
2018-01-28T23:40:48.042Z,1026.81
2018-01-28T23:41:57.378Z,1026.84
2018-01-28T23:43:06.635Z,1026.81
2018-01-28T23:44:15.621Z,1026.79
2018-01-28T23:45:24.329Z,1026.79
2018-01-28T23:46:33.096Z,1026.79
2018-01-28T23:47:41.814Z,1026.83
2018-01-28T23:48:50.784Z,1026.81
2018-01-28T23:50:00.026Z,1026.81
2018-01-28T23:51:09.266Z,1026.84
2018-01-28T23:52:18.245Z,1026.84
2018-01-28T23:53:26.949Z,1026.8
2018-01-28T23:54:35.910Z,1026.78
2018-01-28T23:55:44.609Z,1026.79
2018-01-28T23:56:53.597Z,1026.77
2018-01-28T23:58:02.331Z,1026.78
2018-01-28T23:59:11.035Z,1026.75
